sensor_id;sensor_type;location;lat;lon;timestamp;temperature;humidity
28520;DHT22;15732;48.534;20.382;2023-04-01T00:00:55;11.10;99.90
28520;DHT22;15732;48.534;20.382;2023-04-01T00:03:23;11.10;99.90
28520;DHT22;15732;48.534;20.382;2023-04-01T00:05:52;11.00;99.90
28520;DHT22;15732;48.534;20.382;2023-04-01T00:08:19;11.00;99.90
28520;DHT22;15732;48.534;20.382;2023-04-01T00:10:47;11.00;99.90
28520;DHT22;15732;48.534;20.382;2023-04-01T00:13:15;10.90;99.90
28520;DHT22;15732;48.534;20.382;2023-04-01T00:15:43;10.90;99.90
28520;DHT22;15732;48.534;20.382;2023-04-01T00:18:14;10.90;99.90
28520;DHT22;15732;48.534;20.382;2023-04-01T00:20:45;10.90;99.90
28520;DHT22;15732;48.534;20.382;2023-04-01T00:23:17;10.90;99.90
28520;DHT22;15732;48.534;20.382;2023-04-01T00:25:48;10.70;99.90
28520;DHT22;15732;48.534;20.382;2023-04-01T00:28:19;10.70;99.90
28520;DHT22;15732;48.534;20.382;2023-04-01T00:30:47;10.60;99.90
28520;DHT22;15732;48.534;20.382;2023-04-01T00:33:18;10.50;99.90
28520;DHT22;15732;48.534;20.382;2023-04-01T00:35:50;10.50;99.90
28520;DHT22;15732;48.534;20.382;2023-04-01T00:38:17;10.50;99.90
28520;DHT22;15732;48.534;20.382;2023-04-01T00:40:47;10.50;99.90
28520;DHT22;15732;48.534;20.382;2023-04-01T00:43:18;10.50;99.90
28520;DHT22;15732;48.534;20.382;2023-04-01T00:45:46;10.40;99.90
28520;DHT22;15732;48.534;20.382;2023-04-01T00:48:21;10.40;99.90
28520;DHT22;15732;48.534;20.382;2023-04-01T00:50:52;10.30;99.90
28520;DHT22;15732;48.534;20.382;2023-04-01T00:53:25;10.30;99.90
28520;DHT22;15732;48.534;20.382;2023-04-01T00:56:05;10.20;99.90
28520;DHT22;15732;48.534;20.382;2023-04-01T00:58:38;10.30;99.90
28520;DHT22;15732;48.534;20.382;2023-04-01T01:01:06;10.30;99.90
28520;DHT22;15732;48.534;20.382;2023-04-01T01:03:39;10.20;99.90
28520;DHT22;15732;48.534;20.382;2023-04-01T01:09:30;10.20;99.90
28520;DHT22;15732;48.534;20.382;2023-04-01T01:23:30;10.10;99.90
28520;DHT22;15732;48.534;20.382;2023-04-01T01:37:13;9.90;99.90
28520;DHT22;15732;48.534;20.382;2023-04-01T01:39:43;9.90;99.90
28520;DHT22;15732;48.534;20.382;2023-04-01T01:42:18;9.80;99.90
28520;DHT22;15732;48.534;20.382;2023-04-01T01:44:47;9.90;99.90
28520;DHT22;15732;48.534;20.382;2023-04-01T01:47:17;9.80;99.90
28520;DHT22;15732;48.534;20.382;2023-04-01T01:49:46;9.70;99.90
28520;DHT22;15732;48.534;20.382;2023-04-01T01:52:17;9.70;99.90
28520;DHT22;15732;48.534;20.382;2023-04-01T01:54:49;9.60;99.90
28520;DHT22;15732;48.534;20.382;2023-04-01T01:57:28;9.60;99.90
28520;DHT22;15732;48.534;20.382;2023-04-01T02:00:13;9.60;99.90
28520;DHT22;15732;48.534;20.382;2023-04-01T02:02:46;9.60;99.90
28520;DHT22;15732;48.534;20.382;2023-04-01T02:05:23;9.60;99.90
28520;DHT22;15732;48.534;20.382;2023-04-01T02:10:37;9.60;99.90
28520;DHT22;15732;48.534;20.382;2023-04-01T02:13:16;9.60;99.90
28520;DHT22;15732;48.534;20.382;2023-04-01T02:15:48;9.50;99.90
28520;DHT22;15732;48.534;20.382;2023-04-01T02:18:21;9.30;99.90
28520;DHT22;15732;48.534;20.382;2023-04-01T02:20:49;9.20;99.90
28520;DHT22;15732;48.534;20.382;2023-04-01T02:23:17;9.10;99.90
28520;DHT22;15732;48.534;20.382;2023-04-01T02:25:45;9.00;99.90
28520;DHT22;15732;48.534;20.382;2023-04-01T02:28:13;9.00;99.90
28520;DHT22;15732;48.534;20.382;2023-04-01T02:30:43;9.00;99.90
28520;DHT22;15732;48.534;20.382;2023-04-01T02:33:15;9.10;99.90
28520;DHT22;15732;48.534;20.382;2023-04-01T02:35:47;9.00;99.90
28520;DHT22;15732;48.534;20.382;2023-04-01T02:38:14;9.00;99.90
28520;DHT22;15732;48.534;20.382;2023-04-01T02:40:56;9.00;99.90
28520;DHT22;15732;48.534;20.382;2023-04-01T02:43:23;8.90;99.90
28520;DHT22;15732;48.534;20.382;2023-04-01T02:45:54;8.80;99.90
28520;DHT22;15732;48.534;20.382;2023-04-01T02:48:21;8.80;99.90
28520;DHT22;15732;48.534;20.382;2023-04-01T02:50:49;8.70;99.90
28520;DHT22;15732;48.534;20.382;2023-04-01T02:53:16;8.70;99.90
28520;DHT22;15732;48.534;20.382;2023-04-01T02:55:47;8.70;99.90
28520;DHT22;15732;48.534;20.382;2023-04-01T02:58:17;8.80;99.90
28520;DHT22;15732;48.534;20.382;2023-04-01T03:00:44;8.80;99.90
28520;DHT22;15732;48.534;20.382;2023-04-01T03:03:15;8.90;99.90
28520;DHT22;15732;48.534;20.382;2023-04-01T03:05:43;8.90;99.90
28520;DHT22;15732;48.534;20.382;2023-04-01T03:08:14;9.00;99.90
28520;DHT22;15732;48.534;20.382;2023-04-01T03:10:46;9.00;99.90
28520;DHT22;15732;48.534;20.382;2023-04-01T03:13:13;9.00;99.90
28520;DHT22;15732;48.534;20.382;2023-04-01T03:15:41;8.90;99.90
28520;DHT22;15732;48.534;20.382;2023-04-01T03:18:12;8.90;99.90
28520;DHT22;15732;48.534;20.382;2023-04-01T03:20:39;8.80;99.90
28520;DHT22;15732;48.534;20.382;2023-04-01T03:23:08;8.80;99.90
28520;DHT22;15732;48.534;20.382;2023-04-01T03:25:39;8.80;99.90
28520;DHT22;15732;48.534;20.382;2023-04-01T03:28:06;8.90;99.90
28520;DHT22;15732;48.534;20.382;2023-04-01T03:30:34;8.80;99.90
28520;DHT22;15732;48.534;20.382;2023-04-01T03:33:02;8.80;99.90
28520;DHT22;15732;48.534;20.382;2023-04-01T03:35:32;8.80;99.90
28520;DHT22;15732;48.534;20.382;2023-04-01T03:38:05;8.80;99.90
28520;DHT22;15732;48.534;20.382;2023-04-01T03:40:32;8.80;99.90
28520;DHT22;15732;48.534;20.382;2023-04-01T03:43:06;8.80;99.90
28520;DHT22;15732;48.534;20.382;2023-04-01T03:45:35;8.80;99.90
28520;DHT22;15732;48.534;20.382;2023-04-01T03:48:02;8.80;99.90
28520;DHT22;15732;48.534;20.382;2023-04-01T03:50:30;8.80;99.90
28520;DHT22;15732;48.534;20.382;2023-04-01T03:52:58;8.60;99.90
28520;DHT22;15732;48.534;20.382;2023-04-01T03:55:29;8.50;99.90
28520;DHT22;15732;48.534;20.382;2023-04-01T03:57:57;8.50;99.90
28520;DHT22;15732;48.534;20.382;2023-04-01T04:00:24;8.50;99.90
28520;DHT22;15732;48.534;20.382;2023-04-01T04:02:55;8.50;99.90
28520;DHT22;15732;48.534;20.382;2023-04-01T04:05:23;8.50;99.90
28520;DHT22;15732;48.534;20.382;2023-04-01T04:07:51;8.50;99.90
28520;DHT22;15732;48.534;20.382;2023-04-01T04:10:18;8.50;99.90
28520;DHT22;15732;48.534;20.382;2023-04-01T04:12:46;8.50;99.90
28520;DHT22;15732;48.534;20.382;2023-04-01T04:15:18;8.50;99.90
28520;DHT22;15732;48.534;20.382;2023-04-01T04:17:48;8.50;99.90
28520;DHT22;15732;48.534;20.382;2023-04-01T04:20:19;8.50;99.90
28520;DHT22;15732;48.534;20.382;2023-04-01T04:22:47;8.60;99.90
28520;DHT22;15732;48.534;20.382;2023-04-01T04:25:19;8.60;99.90
28520;DHT22;15732;48.534;20.382;2023-04-01T04:27:46;8.50;99.90
28520;DHT22;15732;48.534;20.382;2023-04-01T04:30:18;8.50;99.90
28520;DHT22;15732;48.534;20.382;2023-04-01T04:32:46;8.40;99.90
28520;DHT22;15732;48.534;20.382;2023-04-01T04:35:14;8.40;99.90
28520;DHT22;15732;48.534;20.382;2023-04-01T04:37:41;8.40;99.90
28520;DHT22;15732;48.534;20.382;2023-04-01T04:40:09;8.30;99.90
28520;DHT22;15732;48.534;20.382;2023-04-01T04:42:36;8.30;99.90
28520;DHT22;15732;48.534;20.382;2023-04-01T04:45:04;8.30;99.90
28520;DHT22;15732;48.534;20.382;2023-04-01T04:47:32;8.30;99.90
28520;DHT22;15732;48.534;20.382;2023-04-01T04:50:00;8.30;99.90
28520;DHT22;15732;48.534;20.382;2023-04-01T04:52:27;8.30;99.90
28520;DHT22;15732;48.534;20.382;2023-04-01T04:54:59;8.30;99.90
28520;DHT22;15732;48.534;20.382;2023-04-01T04:57:26;8.30;99.90
28520;DHT22;15732;48.534;20.382;2023-04-01T04:59:53;8.40;99.90
28520;DHT22;15732;48.534;20.382;2023-04-01T05:02:24;8.30;99.90
28520;DHT22;15732;48.534;20.382;2023-04-01T05:04:55;8.30;99.90
28520;DHT22;15732;48.534;20.382;2023-04-01T05:07:26;8.30;99.90
28520;DHT22;15732;48.534;20.382;2023-04-01T05:09:53;8.40;99.90
28520;DHT22;15732;48.534;20.382;2023-04-01T05:12:25;8.40;99.90
28520;DHT22;15732;48.534;20.382;2023-04-01T05:14:56;8.30;99.90
28520;DHT22;15732;48.534;20.382;2023-04-01T05:17:23;8.20;99.90
28520;DHT22;15732;48.534;20.382;2023-04-01T05:19:50;8.00;99.90
28520;DHT22;15732;48.534;20.382;2023-04-01T05:22:18;7.90;99.90
28520;DHT22;15732;48.534;20.382;2023-04-01T05:24:49;7.90;99.90
28520;DHT22;15732;48.534;20.382;2023-04-01T05:27:17;8.00;99.90
28520;DHT22;15732;48.534;20.382;2023-04-01T05:29:44;7.90;99.90
28520;DHT22;15732;48.534;20.382;2023-04-01T05:32:11;7.80;99.90
28520;DHT22;15732;48.534;20.382;2023-04-01T05:34:42;7.90;99.90
28520;DHT22;15732;48.534;20.382;2023-04-01T05:37:10;7.90;99.90
28520;DHT22;15732;48.534;20.382;2023-04-01T05:39:37;7.80;99.90
28520;DHT22;15732;48.534;20.382;2023-04-01T05:42:07;7.80;99.90
28520;DHT22;15732;48.534;20.382;2023-04-01T05:44:35;7.70;99.90
28520;DHT22;15732;48.534;20.382;2023-04-01T05:47:03;7.70;99.90
28520;DHT22;15732;48.534;20.382;2023-04-01T05:49:32;7.80;99.90
28520;DHT22;15732;48.534;20.382;2023-04-01T05:51:59;7.90;99.90
28520;DHT22;15732;48.534;20.382;2023-04-01T05:54:27;8.00;99.90
28520;DHT22;15732;48.534;20.382;2023-04-01T05:56:58;8.10;99.90
28520;DHT22;15732;48.534;20.382;2023-04-01T05:59:30;8.30;99.90
28520;DHT22;15732;48.534;20.382;2023-04-01T06:02:04;8.40;99.90
28520;DHT22;15732;48.534;20.382;2023-04-01T06:04:37;8.40;99.90
28520;DHT22;15732;48.534;20.382;2023-04-01T06:07:15;8.50;99.90
28520;DHT22;15732;48.534;20.382;2023-04-01T06:09:46;8.60;99.90
28520;DHT22;15732;48.534;20.382;2023-04-01T06:15:23;8.70;99.90
28520;DHT22;15732;48.534;20.382;2023-04-01T06:26:54;9.10;99.90
28520;DHT22;15732;48.534;20.382;2023-04-01T06:38:17;9.60;99.90
28520;DHT22;15732;48.534;20.382;2023-04-01T06:40:53;9.60;99.90
28520;DHT22;15732;48.534;20.382;2023-04-01T06:46:10;9.80;99.90
28520;DHT22;15732;48.534;20.382;2023-04-01T06:52:15;10.00;99.90
28520;DHT22;15732;48.534;20.382;2023-04-01T06:57:52;10.30;99.90
28520;DHT22;15732;48.534;20.382;2023-04-01T07:00:36;10.40;99.90
28520;DHT22;15732;48.534;20.382;2023-04-01T07:05:45;10.80;99.90
28520;DHT22;15732;48.534;20.382;2023-04-01T07:08:27;10.90;99.90
28520;DHT22;15732;48.534;20.382;2023-04-01T07:11:09;11.00;99.90
28520;DHT22;15732;48.534;20.382;2023-04-01T07:13:51;11.20;99.90
28520;DHT22;15732;48.534;20.382;2023-04-01T07:16:25;11.40;99.90
28520;DHT22;15732;48.534;20.382;2023-04-01T07:19:08;11.50;99.90
28520;DHT22;15732;48.534;20.382;2023-04-01T07:21:41;11.60;99.90
28520;DHT22;15732;48.534;20.382;2023-04-01T07:24:27;11.70;99.90
28520;DHT22;15732;48.534;20.382;2023-04-01T07:26:57;11.80;99.90
28520;DHT22;15732;48.534;20.382;2023-04-01T07:29:26;11.80;99.90
28520;DHT22;15732;48.534;20.382;2023-04-01T07:37:12;12.30;99.90
28520;DHT22;15732;48.534;20.382;2023-04-01T07:51:03;13.00;99.90
28520;DHT22;15732;48.534;20.382;2023-04-01T07:54:11;13.20;99.90
28520;DHT22;15732;48.534;20.382;2023-04-01T07:57:05;13.30;99.90
28520;DHT22;15732;48.534;20.382;2023-04-01T08:00:00;13.50;99.90
28520;DHT22;15732;48.534;20.382;2023-04-01T08:10:56;14.00;99.90
28520;DHT22;15732;48.534;20.382;2023-04-01T08:21:47;14.40;99.90
28520;DHT22;15732;48.534;20.382;2023-04-01T08:24:38;14.50;99.90
28520;DHT22;15732;48.534;20.382;2023-04-01T08:27:21;14.50;99.90
28520;DHT22;15732;48.534;20.382;2023-04-01T08:29:57;14.60;99.90
28520;DHT22;15732;48.534;20.382;2023-04-01T08:32:37;14.70;99.90
28520;DHT22;15732;48.534;20.382;2023-04-01T08:35:27;14.70;99.90
28520;DHT22;15732;48.534;20.382;2023-04-01T08:37:58;14.80;99.90
28520;DHT22;15732;48.534;20.382;2023-04-01T08:40:48;14.90;99.90
28520;DHT22;15732;48.534;20.382;2023-04-01T08:43:33;15.00;99.90
28520;DHT22;15732;48.534;20.382;2023-04-01T09:01:01;15.20;99.90
28520;DHT22;15732;48.534;20.382;2023-04-01T09:08:48;15.20;99.90
28520;DHT22;15732;48.534;20.382;2023-04-01T09:19:24;15.20;99.90
28520;DHT22;15732;48.534;20.382;2023-04-01T09:22:25;15.20;99.90
28520;DHT22;15732;48.534;20.382;2023-04-01T09:25:20;15.20;99.90
28520;DHT22;15732;48.534;20.382;2023-04-01T09:28:20;15.30;99.90
28520;DHT22;15732;48.534;20.382;2023-04-01T09:36:46;15.30;99.90
28520;DHT22;15732;48.534;20.382;2023-04-01T09:42:20;15.10;99.90
28520;DHT22;15732;48.534;20.382;2023-04-01T09:45:17;15.00;99.90
28520;DHT22;15732;48.534;20.382;2023-04-01T10:16:03;15.30;99.90
28520;DHT22;15732;48.534;20.382;2023-04-01T10:35:30;14.90;99.90
28520;DHT22;15732;48.534;20.382;2023-04-01T10:56:43;14.70;99.90
28520;DHT22;15732;48.534;20.382;2023-04-01T11:14:02;14.90;99.90
28520;DHT22;15732;48.534;20.382;2023-04-01T11:37:57;15.60;99.90
28520;DHT22;15732;48.534;20.382;2023-04-01T11:43:11;15.70;99.90
28520;DHT22;15732;48.534;20.382;2023-04-01T11:51:47;15.80;99.90
28520;DHT22;15732;48.534;20.382;2023-04-01T11:58:42;15.80;99.90
28520;DHT22;15732;48.534;20.382;2023-04-01T12:00:55;15.80;99.90
28520;DHT22;15732;48.534;20.382;2023-04-01T12:11:45;15.70;99.90
28520;DHT22;15732;48.534;20.382;2023-04-01T12:14:31;15.70;99.90
28520;DHT22;15732;48.534;20.382;2023-04-01T12:17:28;15.60;99.90
28520;DHT22;15732;48.534;20.382;2023-04-01T12:20:20;15.50;99.90
28520;DHT22;15732;48.534;20.382;2023-04-01T12:23:03;15.50;99.90
28520;DHT22;15732;48.534;20.382;2023-04-01T12:31:19;15.40;99.90
28520;DHT22;15732;48.534;20.382;2023-04-01T12:34:00;15.40;99.90
28520;DHT22;15732;48.534;20.382;2023-04-01T12:37:34;15.50;99.90
28520;DHT22;15732;48.534;20.382;2023-04-01T12:45:31;15.70;99.90
28520;DHT22;15732;48.534;20.382;2023-04-01T12:56:39;15.80;99.90
28520;DHT22;15732;48.534;20.382;2023-04-01T13:02:07;15.90;99.90
28520;DHT22;15732;48.534;20.382;2023-04-01T13:10:24;15.90;99.90
28520;DHT22;15732;48.534;20.382;2023-04-01T13:15:53;15.90;99.90
28520;DHT22;15732;48.534;20.382;2023-04-01T13:18:42;16.00;99.90
28520;DHT22;15732;48.534;20.382;2023-04-01T13:32:46;16.10;99.90
28520;DHT22;15732;48.534;20.382;2023-04-01T13:41:06;16.10;99.90
28520;DHT22;15732;48.534;20.382;2023-04-01T13:43:39;16.10;99.90
28520;DHT22;15732;48.534;20.382;2023-04-01T13:57:19;16.20;99.90
28520;DHT22;15732;48.534;20.382;2023-04-01T14:02:51;16.30;99.90
28520;DHT22;15732;48.534;20.382;2023-04-01T14:05:35;16.30;99.90
28520;DHT22;15732;48.534;20.382;2023-04-01T14:08:48;16.40;99.90
28520;DHT22;15732;48.534;20.382;2023-04-01T14:20:16;16.50;99.90
28520;DHT22;15732;48.534;20.382;2023-04-01T14:39:36;16.40;99.90
28520;DHT22;15732;48.534;20.382;2023-04-01T14:51:04;16.40;99.90
28520;DHT22;15732;48.534;20.382;2023-04-01T14:53:38;16.40;99.90
28520;DHT22;15732;48.534;20.382;2023-04-01T14:56:35;16.50;99.90
28520;DHT22;15732;48.534;20.382;2023-04-01T14:59:13;16.40;99.90
28520;DHT22;15732;48.534;20.382;2023-04-01T15:04:53;16.40;99.90
28520;DHT22;15732;48.534;20.382;2023-04-01T15:27:02;15.70;99.90
28520;DHT22;15732;48.534;20.382;2023-04-01T15:30:22;15.60;99.90
28520;DHT22;15732;48.534;20.382;2023-04-01T15:37:56;15.00;99.90
28520;DHT22;15732;48.534;20.382;2023-04-01T15:50:06;14.90;99.90
28520;DHT22;15732;48.534;20.382;2023-04-01T16:04:11;14.60;99.90
28520;DHT22;15732;48.534;20.382;2023-04-01T16:07:10;14.60;99.90
28520;DHT22;15732;48.534;20.382;2023-04-01T16:18:54;14.30;99.90
28520;DHT22;15732;48.534;20.382;2023-04-01T16:27:06;14.10;99.90
28520;DHT22;15732;48.534;20.382;2023-04-01T16:29:49;14.00;99.90
28520;DHT22;15732;48.534;20.382;2023-04-01T16:44:31;14.00;99.90
28520;DHT22;15732;48.534;20.382;2023-04-01T16:46:41;14.00;99.90
28520;DHT22;15732;48.534;20.382;2023-04-01T16:57:43;13.90;99.90
28520;DHT22;15732;48.534;20.382;2023-04-01T17:00:47;14.00;99.90
28520;DHT22;15732;48.534;20.382;2023-04-01T17:03:29;14.00;99.90
28520;DHT22;15732;48.534;20.382;2023-04-01T17:06:17;14.00;99.90
28520;DHT22;15732;48.534;20.382;2023-04-01T17:11:33;14.10;99.90
28520;DHT22;15732;48.534;20.382;2023-04-01T17:19:47;14.20;99.90
28520;DHT22;15732;48.534;20.382;2023-04-01T17:25:08;14.20;99.90
28520;DHT22;15732;48.534;20.382;2023-04-01T17:28:08;14.20;99.90
28520;DHT22;15732;48.534;20.382;2023-04-01T17:33:42;14.20;99.90
28520;DHT22;15732;48.534;20.382;2023-04-01T17:39:24;14.20;99.90
28520;DHT22;15732;48.534;20.382;2023-04-01T17:42:15;14.10;99.90
28520;DHT22;15732;48.534;20.382;2023-04-01T17:48:01;14.10;99.90
28520;DHT22;15732;48.534;20.382;2023-04-01T17:53:29;14.10;99.90
28520;DHT22;15732;48.534;20.382;2023-04-01T17:56:08;14.00;99.90
28520;DHT22;15732;48.534;20.382;2023-04-01T18:01:26;14.00;99.90
28520;DHT22;15732;48.534;20.382;2023-04-01T18:09:25;14.00;99.90
28520;DHT22;15732;48.534;20.382;2023-04-01T18:17:59;13.80;99.90
28520;DHT22;15732;48.534;20.382;2023-04-01T18:25:53;13.60;99.90
28520;DHT22;15732;48.534;20.382;2023-04-01T18:28:42;13.40;99.90
28520;DHT22;15732;48.534;20.382;2023-04-01T18:31:19;13.30;99.90
28520;DHT22;15732;48.534;20.382;2023-04-01T18:34:41;13.20;99.90
28520;DHT22;15732;48.534;20.382;2023-04-01T18:39:38;12.90;99.90
28520;DHT22;15732;48.534;20.382;2023-04-01T18:48:12;12.70;99.90
28520;DHT22;15732;48.534;20.382;2023-04-01T18:50:55;12.70;99.90
28520;DHT22;15732;48.534;20.382;2023-04-01T18:53:42;12.60;99.90
28520;DHT22;15732;48.534;20.382;2023-04-01T18:56:30;12.70;99.90
28520;DHT22;15732;48.534;20.382;2023-04-01T19:04:26;12.70;99.90
28520;DHT22;15732;48.534;20.382;2023-04-01T19:07:00;12.60;99.90
28520;DHT22;15732;48.534;20.382;2023-04-01T19:09:48;12.60;99.90
28520;DHT22;15732;48.534;20.382;2023-04-01T19:20:47;12.40;99.90
28520;DHT22;15732;48.534;20.382;2023-04-01T19:23:44;12.40;99.90
28520;DHT22;15732;48.534;20.382;2023-04-01T19:34:50;12.50;99.90
28520;DHT22;15732;48.534;20.382;2023-04-01T19:37:32;12.40;99.90
28520;DHT22;15732;48.534;20.382;2023-04-01T19:45:38;12.20;99.90
28520;DHT22;15732;48.534;20.382;2023-04-01T19:51:10;12.20;99.90
28520;DHT22;15732;48.534;20.382;2023-04-01T19:56:23;12.20;99.90
28520;DHT22;15732;48.534;20.382;2023-04-01T20:04:44;12.10;99.90
28520;DHT22;15732;48.534;20.382;2023-04-01T20:07:24;12.10;99.90
28520;DHT22;15732;48.534;20.382;2023-04-01T20:10:30;12.10;99.90
28520;DHT22;15732;48.534;20.382;2023-04-01T20:16:02;12.00;99.90
28520;DHT22;15732;48.534;20.382;2023-04-01T20:18:41;12.00;99.90
28520;DHT22;15732;48.534;20.382;2023-04-01T20:26:38;11.90;99.90
28520;DHT22;15732;48.534;20.382;2023-04-01T20:29:39;11.90;99.90
28520;DHT22;15732;48.534;20.382;2023-04-01T20:42:55;11.70;99.90
28520;DHT22;15732;48.534;20.382;2023-04-01T20:45:28;11.60;99.90
28520;DHT22;15732;48.534;20.382;2023-04-01T20:48:31;11.60;99.90
28520;DHT22;15732;48.534;20.382;2023-04-01T20:51:14;11.60;99.90
28520;DHT22;15732;48.534;20.382;2023-04-01T20:59:56;11.40;99.90
28520;DHT22;15732;48.534;20.382;2023-04-01T21:02:51;11.40;99.90
28520;DHT22;15732;48.534;20.382;2023-04-01T21:24:32;10.90;99.90
28520;DHT22;15732;48.534;20.382;2023-04-01T21:32:53;10.70;99.90
28520;DHT22;15732;48.534;20.382;2023-04-01T21:44:51;10.30;99.90
28520;DHT22;15732;48.534;20.382;2023-04-01T22:06:53;10.10;99.90
28520;DHT22;15732;48.534;20.382;2023-04-01T22:12:35;10.00;99.90
28520;DHT22;15732;48.534;20.382;2023-04-01T22:17:54;9.90;99.90
28520;DHT22;15732;48.534;20.382;2023-04-01T22:26:50;9.90;99.90
28520;DHT22;15732;48.534;20.382;2023-04-01T22:29:24;9.80;99.90
28520;DHT22;15732;48.534;20.382;2023-04-01T22:35:23;9.40;99.90
28520;DHT22;15732;48.534;20.382;2023-04-01T22:38:42;9.30;99.90
28520;DHT22;15732;48.534;20.382;2023-04-01T22:41:02;9.40;99.90
28520;DHT22;15732;48.534;20.382;2023-04-01T22:43:41;9.20;99.90
28520;DHT22;15732;48.534;20.382;2023-04-01T22:49:29;9.30;99.90
28520;DHT22;15732;48.534;20.382;2023-04-01T22:52:33;9.50;99.90
28520;DHT22;15732;48.534;20.382;2023-04-01T22:58:02;9.70;99.90
28520;DHT22;15732;48.534;20.382;2023-04-01T23:00:40;9.80;99.90
28520;DHT22;15732;48.534;20.382;2023-04-01T23:03:17;9.80;99.90
28520;DHT22;15732;48.534;20.382;2023-04-01T23:05:57;9.90;99.90
28520;DHT22;15732;48.534;20.382;2023-04-01T23:11:22;9.70;99.90
28520;DHT22;15732;48.534;20.382;2023-04-01T23:22:20;9.30;99.90
28520;DHT22;15732;48.534;20.382;2023-04-01T23:36:13;8.60;99.90
28520;DHT22;15732;48.534;20.382;2023-04-01T23:38:43;8.50;99.90
28520;DHT22;15732;48.534;20.382;2023-04-01T23:41:30;8.40;99.90
28520;DHT22;15732;48.534;20.382;2023-04-01T23:44:17;8.50;99.90
28520;DHT22;15732;48.534;20.382;2023-04-01T23:46:49;8.30;99.90
28520;DHT22;15732;48.534;20.382;2023-04-01T23:49:28;8.30;99.90
28520;DHT22;15732;48.534;20.382;2023-04-01T23:52:02;8.30;99.90
28520;DHT22;15732;48.534;20.382;2023-04-01T23:54:33;8.40;99.90
28520;DHT22;15732;48.534;20.382;2023-04-01T23:57:10;8.60;99.90
28520;DHT22;15732;48.534;20.382;2023-04-01T23:59:38;8.70;99.90
